sensor_id;sensor_type;location;lat;lon;timestamp;P1;durP1;ratioP1;P2;durP2;ratioP2
3791;SDS011;1911;53.768;11.474;2023-06-19T00:02:17;12.77;;;7.90;;
3791;SDS011;1911;53.768;11.474;2023-06-19T00:04:43;9.23;;;8.33;;
3791;SDS011;1911;53.768;11.474;2023-06-19T00:07:08;9.83;;;7.73;;
3791;SDS011;1911;53.768;11.474;2023-06-19T00:09:34;8.90;;;7.60;;
3791;SDS011;1911;53.768;11.474;2023-06-19T00:12:00;9.50;;;8.40;;
3791;SDS011;1911;53.768;11.474;2023-06-19T00:14:26;10.10;;;8.37;;
3791;SDS011;1911;53.768;11.474;2023-06-19T00:16:52;9.87;;;8.87;;
3791;SDS011;1911;53.768;11.474;2023-06-19T00:19:17;9.33;;;8.37;;
3791;SDS011;1911;53.768;11.474;2023-06-19T00:21:43;8.73;;;7.90;;
3791;SDS011;1911;53.768;11.474;2023-06-19T00:24:09;9.33;;;8.37;;
3791;SDS011;1911;53.768;11.474;2023-06-19T00:26:35;9.33;;;8.43;;
3791;SDS011;1911;53.768;11.474;2023-06-19T00:29:01;9.20;;;7.73;;
3791;SDS011;1911;53.768;11.474;2023-06-19T00:31:27;9.50;;;8.53;;
3791;SDS011;1911;53.768;11.474;2023-06-19T00:33:53;10.43;;;7.90;;
3791;SDS011;1911;53.768;11.474;2023-06-19T00:36:18;8.63;;;7.73;;
3791;SDS011;1911;53.768;11.474;2023-06-19T00:38:50;9.87;;;8.23;;
3791;SDS011;1911;53.768;11.474;2023-06-19T00:41:16;8.93;;;7.67;;
3791;SDS011;1911;53.768;11.474;2023-06-19T00:43:42;9.30;;;8.30;;
3791;SDS011;1911;53.768;11.474;2023-06-19T00:46:08;9.90;;;8.60;;
3791;SDS011;1911;53.768;11.474;2023-06-19T00:48:34;12.20;;;8.33;;
3791;SDS011;1911;53.768;11.474;2023-06-19T00:51:00;10.70;;;8.87;;
3791;SDS011;1911;53.768;11.474;2023-06-19T00:53:26;9.47;;;8.47;;
3791;SDS011;1911;53.768;11.474;2023-06-19T00:55:53;11.10;;;8.77;;
3791;SDS011;1911;53.768;11.474;2023-06-19T00:58:20;11.13;;;8.50;;
3791;SDS011;1911;53.768;11.474;2023-06-19T01:00:46;10.80;;;8.60;;
3791;SDS011;1911;53.768;11.474;2023-06-19T01:03:22;13.27;;;8.17;;
3791;SDS011;1911;53.768;11.474;2023-06-19T01:05:47;10.33;;;8.47;;
3791;SDS011;1911;53.768;11.474;2023-06-19T01:08:25;9.43;;;8.20;;
3791;SDS011;1911;53.768;11.474;2023-06-19T01:11:15;10.13;;;8.10;;
3791;SDS011;1911;53.768;11.474;2023-06-19T01:13:45;9.90;;;8.60;;
3791;SDS011;1911;53.768;11.474;2023-06-19T01:16:21;9.43;;;8.47;;
3791;SDS011;1911;53.768;11.474;2023-06-19T01:18:48;9.27;;;8.37;;
3791;SDS011;1911;53.768;11.474;2023-06-19T01:21:15;9.80;;;8.20;;
3791;SDS011;1911;53.768;11.474;2023-06-19T01:23:42;12.27;;;8.97;;
3791;SDS011;1911;53.768;11.474;2023-06-19T01:26:09;8.67;;;7.87;;
3791;SDS011;1911;53.768;11.474;2023-06-19T01:28:35;11.47;;;8.77;;
3791;SDS011;1911;53.768;11.474;2023-06-19T01:31:02;11.87;;;8.73;;
3791;SDS011;1911;53.768;11.474;2023-06-19T01:33:30;10.00;;;8.60;;
3791;SDS011;1911;53.768;11.474;2023-06-19T01:35:58;10.40;;;8.10;;
3791;SDS011;1911;53.768;11.474;2023-06-19T01:38:26;9.97;;;8.70;;
3791;SDS011;1911;53.768;11.474;2023-06-19T01:40:53;8.50;;;7.60;;
3791;SDS011;1911;53.768;11.474;2023-06-19T01:43:21;9.60;;;7.90;;
3791;SDS011;1911;53.768;11.474;2023-06-19T01:45:48;8.97;;;8.07;;
3791;SDS011;1911;53.768;11.474;2023-06-19T01:48:14;8.10;;;7.30;;
3791;SDS011;1911;53.768;11.474;2023-06-19T01:50:41;10.50;;;8.90;;
3791;SDS011;1911;53.768;11.474;2023-06-19T01:53:12;10.70;;;8.93;;
3791;SDS011;1911;53.768;11.474;2023-06-19T01:55:38;9.73;;;8.73;;
3791;SDS011;1911;53.768;11.474;2023-06-19T01:58:06;12.70;;;8.67;;
3791;SDS011;1911;53.768;11.474;2023-06-19T02:00:32;9.00;;;8.10;;
3791;SDS011;1911;53.768;11.474;2023-06-19T02:03:01;9.00;;;7.87;;
3791;SDS011;1911;53.768;11.474;2023-06-19T02:05:27;13.33;;;9.93;;
3791;SDS011;1911;53.768;11.474;2023-06-19T02:07:53;9.43;;;8.00;;
3791;SDS011;1911;53.768;11.474;2023-06-19T02:10:19;10.00;;;8.30;;
3791;SDS011;1911;53.768;11.474;2023-06-19T02:12:44;9.70;;;8.70;;
3791;SDS011;1911;53.768;11.474;2023-06-19T02:15:10;10.50;;;8.03;;
3791;SDS011;1911;53.768;11.474;2023-06-19T02:17:35;12.00;;;8.67;;
3791;SDS011;1911;53.768;11.474;2023-06-19T02:20:01;12.40;;;8.50;;
3791;SDS011;1911;53.768;11.474;2023-06-19T02:22:27;9.90;;;8.90;;
3791;SDS011;1911;53.768;11.474;2023-06-19T02:24:53;11.50;;;8.70;;
3791;SDS011;1911;53.768;11.474;2023-06-19T02:27:18;9.60;;;8.50;;
3791;SDS011;1911;53.768;11.474;2023-06-19T02:29:44;9.23;;;8.33;;
3791;SDS011;1911;53.768;11.474;2023-06-19T02:32:09;8.90;;;7.70;;
3791;SDS011;1911;53.768;11.474;2023-06-19T02:34:36;9.13;;;8.03;;
3791;SDS011;1911;53.768;11.474;2023-06-19T02:37:01;10.67;;;8.97;;
3791;SDS011;1911;53.768;11.474;2023-06-19T02:39:29;11.60;;;8.87;;
3791;SDS011;1911;53.768;11.474;2023-06-19T02:41:54;8.83;;;7.93;;
3791;SDS011;1911;53.768;11.474;2023-06-19T02:44:20;10.20;;;8.30;;
3791;SDS011;1911;53.768;11.474;2023-06-19T02:46:45;9.10;;;7.70;;
3791;SDS011;1911;53.768;11.474;2023-06-19T02:49:11;11.73;;;8.50;;
3791;SDS011;1911;53.768;11.474;2023-06-19T02:51:37;11.43;;;8.90;;
3791;SDS011;1911;53.768;11.474;2023-06-19T02:54:02;9.40;;;8.40;;
3791;SDS011;1911;53.768;11.474;2023-06-19T02:56:28;10.80;;;8.17;;
3791;SDS011;1911;53.768;11.474;2023-06-19T02:58:53;10.67;;;8.87;;
3791;SDS011;1911;53.768;11.474;2023-06-19T03:01:19;9.70;;;8.40;;
3791;SDS011;1911;53.768;11.474;2023-06-19T03:03:45;11.83;;;8.90;;
3791;SDS011;1911;53.768;11.474;2023-06-19T03:06:11;9.40;;;8.40;;
3791;SDS011;1911;53.768;11.474;2023-06-19T03:08:38;9.07;;;8.17;;
3791;SDS011;1911;53.768;11.474;2023-06-19T03:11:04;11.00;;;8.97;;
3791;SDS011;1911;53.768;11.474;2023-06-19T03:16:19;10.20;;;8.07;;
3791;SDS011;1911;53.768;11.474;2023-06-19T03:18:46;8.70;;;7.80;;
3791;SDS011;1911;53.768;11.474;2023-06-19T03:21:14;10.30;;;9.23;;
3791;SDS011;1911;53.768;11.474;2023-06-19T03:23:40;10.23;;;8.30;;
3791;SDS011;1911;53.768;11.474;2023-06-19T03:26:06;9.00;;;7.93;;
3791;SDS011;1911;53.768;11.474;2023-06-19T03:28:32;9.57;;;8.57;;
3791;SDS011;1911;53.768;11.474;2023-06-19T03:30:58;9.57;;;8.00;;
3791;SDS011;1911;53.768;11.474;2023-06-19T03:33:25;10.10;;;7.17;;
3791;SDS011;1911;53.768;11.474;2023-06-19T03:35:51;10.93;;;9.40;;
3791;SDS011;1911;53.768;11.474;2023-06-19T03:38:16;8.80;;;7.80;;
3791;SDS011;1911;53.768;11.474;2023-06-19T03:40:42;9.60;;;7.60;;
3791;SDS011;1911;53.768;11.474;2023-06-19T03:43:08;9.27;;;8.10;;
3791;SDS011;1911;53.768;11.474;2023-06-19T03:45:33;10.33;;;8.07;;
3791;SDS011;1911;53.768;11.474;2023-06-19T03:47:59;11.37;;;8.40;;
3791;SDS011;1911;53.768;11.474;2023-06-19T03:50:24;9.30;;;7.83;;
3791;SDS011;1911;53.768;11.474;2023-06-19T03:52:50;9.60;;;8.40;;
3791;SDS011;1911;53.768;11.474;2023-06-19T03:55:15;11.43;;;8.17;;
3791;SDS011;1911;53.768;11.474;2023-06-19T03:57:41;12.03;;;7.67;;
3791;SDS011;1911;53.768;11.474;2023-06-19T04:00:07;11.40;;;8.10;;
3791;SDS011;1911;53.768;11.474;2023-06-19T04:02:33;9.10;;;7.90;;
3791;SDS011;1911;53.768;11.474;2023-06-19T04:04:59;8.20;;;7.40;;
3791;SDS011;1911;53.768;11.474;2023-06-19T04:07:25;11.80;;;7.97;;
3791;SDS011;1911;53.768;11.474;2023-06-19T04:09:50;8.97;;;7.77;;
3791;SDS011;1911;53.768;11.474;2023-06-19T04:12:16;10.40;;;8.83;;
3791;SDS011;1911;53.768;11.474;2023-06-19T04:14:41;10.17;;;8.60;;
3791;SDS011;1911;53.768;11.474;2023-06-19T04:17:07;8.33;;;7.37;;
3791;SDS011;1911;53.768;11.474;2023-06-19T04:19:32;10.53;;;9.43;;
3791;SDS011;1911;53.768;11.474;2023-06-19T04:21:58;10.63;;;8.27;;
3791;SDS011;1911;53.768;11.474;2023-06-19T04:24:24;9.67;;;8.70;;
3791;SDS011;1911;53.768;11.474;2023-06-19T04:26:49;9.80;;;8.83;;
3791;SDS011;1911;53.768;11.474;2023-06-19T04:29:15;9.50;;;8.50;;
3791;SDS011;1911;53.768;11.474;2023-06-19T04:31:43;10.50;;;8.97;;
3791;SDS011;1911;53.768;11.474;2023-06-19T04:34:11;10.13;;;9.10;;
3791;SDS011;1911;53.768;11.474;2023-06-19T04:36:39;10.53;;;8.43;;
3791;SDS011;1911;53.768;11.474;2023-06-19T04:39:05;9.90;;;7.93;;
3791;SDS011;1911;53.768;11.474;2023-06-19T04:41:31;10.50;;;9.17;;
3791;SDS011;1911;53.768;11.474;2023-06-19T04:43:57;8.90;;;8.00;;
3791;SDS011;1911;53.768;11.474;2023-06-19T04:46:22;10.77;;;8.73;;
3791;SDS011;1911;53.768;11.474;2023-06-19T04:48:48;11.00;;;8.80;;
3791;SDS011;1911;53.768;11.474;2023-06-19T04:51:17;9.70;;;8.70;;
3791;SDS011;1911;53.768;11.474;2023-06-19T04:53:48;11.63;;;8.43;;
3791;SDS011;1911;53.768;11.474;2023-06-19T04:56:14;12.57;;;8.80;;
3791;SDS011;1911;53.768;11.474;2023-06-19T04:58:40;9.30;;;8.30;;
3791;SDS011;1911;53.768;11.474;2023-06-19T05:01:13;9.63;;;8.70;;
3791;SDS011;1911;53.768;11.474;2023-06-19T05:03:40;10.10;;;8.97;;
3791;SDS011;1911;53.768;11.474;2023-06-19T05:06:07;11.40;;;9.53;;
3791;SDS011;1911;53.768;11.474;2023-06-19T05:08:33;11.43;;;9.87;;
3791;SDS011;1911;53.768;11.474;2023-06-19T05:10:59;9.97;;;8.97;;
3791;SDS011;1911;53.768;11.474;2023-06-19T05:13:25;9.43;;;8.43;;
3791;SDS011;1911;53.768;11.474;2023-06-19T05:15:50;10.23;;;9.00;;
3791;SDS011;1911;53.768;11.474;2023-06-19T05:18:16;13.20;;;9.10;;
3791;SDS011;1911;53.768;11.474;2023-06-19T05:20:43;11.60;;;10.43;;
3791;SDS011;1911;53.768;11.474;2023-06-19T05:23:08;9.60;;;8.60;;
3791;SDS011;1911;53.768;11.474;2023-06-19T05:25:34;9.70;;;8.70;;
3791;SDS011;1911;53.768;11.474;2023-06-19T05:28:00;11.03;;;9.27;;
3791;SDS011;1911;53.768;11.474;2023-06-19T05:30:25;10.30;;;9.30;;
3791;SDS011;1911;53.768;11.474;2023-06-19T05:32:51;10.77;;;9.67;;
3791;SDS011;1911;53.768;11.474;2023-06-19T05:35:17;11.47;;;9.47;;
3791;SDS011;1911;53.768;11.474;2023-06-19T05:37:42;13.90;;;9.93;;
3791;SDS011;1911;53.768;11.474;2023-06-19T05:40:08;11.40;;;9.47;;
3791;SDS011;1911;53.768;11.474;2023-06-19T05:42:35;10.60;;;9.40;;
3791;SDS011;1911;53.768;11.474;2023-06-19T05:45:01;11.60;;;10.20;;
3791;SDS011;1911;53.768;11.474;2023-06-19T05:47:27;10.57;;;9.30;;
3791;SDS011;1911;53.768;11.474;2023-06-19T05:49:54;11.80;;;9.67;;
3791;SDS011;1911;53.768;11.474;2023-06-19T05:52:20;10.73;;;9.63;;
3791;SDS011;1911;53.768;11.474;2023-06-19T05:54:46;10.97;;;9.87;;
3791;SDS011;1911;53.768;11.474;2023-06-19T05:57:12;10.93;;;9.83;;
3791;SDS011;1911;53.768;11.474;2023-06-19T05:59:38;11.20;;;10.00;;
3791;SDS011;1911;53.768;11.474;2023-06-19T06:02:03;11.13;;;9.90;;
3791;SDS011;1911;53.768;11.474;2023-06-19T06:04:30;10.90;;;9.60;;
3791;SDS011;1911;53.768;11.474;2023-06-19T06:06:56;11.70;;;9.93;;
3791;SDS011;1911;53.768;11.474;2023-06-19T06:09:22;11.70;;;10.50;;
3791;SDS011;1911;53.768;11.474;2023-06-19T06:11:47;12.10;;;10.90;;
3791;SDS011;1911;53.768;11.474;2023-06-19T06:14:13;11.40;;;10.20;;
3791;SDS011;1911;53.768;11.474;2023-06-19T06:16:39;11.80;;;9.40;;
3791;SDS011;1911;53.768;11.474;2023-06-19T06:19:04;11.43;;;10.23;;
3791;SDS011;1911;53.768;11.474;2023-06-19T06:21:31;10.27;;;9.23;;
3791;SDS011;1911;53.768;11.474;2023-06-19T06:23:57;11.03;;;9.83;;
3791;SDS011;1911;53.768;11.474;2023-06-19T06:26:22;11.63;;;10.53;;
3791;SDS011;1911;53.768;11.474;2023-06-19T06:28:48;12.30;;;10.63;;
3791;SDS011;1911;53.768;11.474;2023-06-19T06:31:13;11.83;;;10.63;;
3791;SDS011;1911;53.768;11.474;2023-06-19T06:33:39;11.33;;;10.10;;
3791;SDS011;1911;53.768;11.474;2023-06-19T06:36:05;13.40;;;10.83;;
3791;SDS011;1911;53.768;11.474;2023-06-19T06:38:31;12.13;;;10.83;;
3791;SDS011;1911;53.768;11.474;2023-06-19T06:40:56;13.93;;;10.20;;
3791;SDS011;1911;53.768;11.474;2023-06-19T06:43:22;11.93;;;10.73;;
3791;SDS011;1911;53.768;11.474;2023-06-19T06:45:47;11.47;;;10.37;;
3791;SDS011;1911;53.768;11.474;2023-06-19T06:48:13;11.97;;;10.77;;
3791;SDS011;1911;53.768;11.474;2023-06-19T06:50:39;13.47;;;10.73;;
3791;SDS011;1911;53.768;11.474;2023-06-19T06:53:06;12.43;;;11.17;;
3791;SDS011;1911;53.768;11.474;2023-06-19T06:55:31;11.63;;;10.53;;
3791;SDS011;1911;53.768;11.474;2023-06-19T06:57:57;12.40;;;11.10;;
3791;SDS011;1911;53.768;11.474;2023-06-19T07:00:22;16.37;;;12.37;;
3791;SDS011;1911;53.768;11.474;2023-06-19T07:02:48;12.80;;;10.53;;
3791;SDS011;1911;53.768;11.474;2023-06-19T07:05:15;16.40;;;11.43;;
3791;SDS011;1911;53.768;11.474;2023-06-19T07:07:41;16.27;;;11.50;;
3791;SDS011;1911;53.768;11.474;2023-06-19T07:10:07;12.93;;;11.60;;
3791;SDS011;1911;53.768;11.474;2023-06-19T07:12:33;14.60;;;12.93;;
3791;SDS011;1911;53.768;11.474;2023-06-19T07:14:59;19.37;;;11.80;;
3791;SDS011;1911;53.768;11.474;2023-06-19T07:17:25;14.70;;;12.70;;
3791;SDS011;1911;53.768;11.474;2023-06-19T07:19:50;12.37;;;11.17;;
3791;SDS011;1911;53.768;11.474;2023-06-19T07:22:16;12.90;;;11.60;;
3791;SDS011;1911;53.768;11.474;2023-06-19T07:24:42;13.63;;;12.33;;
3791;SDS011;1911;53.768;11.474;2023-06-19T07:27:07;13.93;;;12.50;;
3791;SDS011;1911;53.768;11.474;2023-06-19T07:29:33;13.90;;;12.60;;
3791;SDS011;1911;53.768;11.474;2023-06-19T07:31:58;15.53;;;13.53;;
3791;SDS011;1911;53.768;11.474;2023-06-19T07:34:27;12.87;;;11.60;;
3791;SDS011;1911;53.768;11.474;2023-06-19T07:36:52;13.07;;;11.77;;
3791;SDS011;1911;53.768;11.474;2023-06-19T07:39:18;12.93;;;11.53;;
3791;SDS011;1911;53.768;11.474;2023-06-19T07:41:44;12.67;;;11.47;;
3791;SDS011;1911;53.768;11.474;2023-06-19T07:44:10;13.73;;;12.33;;
3791;SDS011;1911;53.768;11.474;2023-06-19T07:46:36;13.27;;;12.00;;
3791;SDS011;1911;53.768;11.474;2023-06-19T07:49:02;15.73;;;13.10;;
3791;SDS011;1911;53.768;11.474;2023-06-19T07:51:27;15.80;;;13.20;;
3791;SDS011;1911;53.768;11.474;2023-06-19T07:53:53;13.50;;;12.10;;
3791;SDS011;1911;53.768;11.474;2023-06-19T07:56:19;13.87;;;12.47;;
3791;SDS011;1911;53.768;11.474;2023-06-19T07:58:44;14.63;;;11.63;;
3791;SDS011;1911;53.768;11.474;2023-06-19T08:01:10;13.83;;;12.30;;
3791;SDS011;1911;53.768;11.474;2023-06-19T08:03:35;14.20;;;12.40;;
3791;SDS011;1911;53.768;11.474;2023-06-19T08:06:02;14.03;;;12.67;;
3791;SDS011;1911;53.768;11.474;2023-06-19T08:08:28;13.07;;;11.63;;
3791;SDS011;1911;53.768;11.474;2023-06-19T08:10:53;13.43;;;12.23;;
3791;SDS011;1911;53.768;11.474;2023-06-19T08:13:19;14.07;;;11.83;;
3791;SDS011;1911;53.768;11.474;2023-06-19T08:15:45;13.97;;;12.33;;
3791;SDS011;1911;53.768;11.474;2023-06-19T08:18:10;13.80;;;12.40;;
3791;SDS011;1911;53.768;11.474;2023-06-19T08:20:36;13.47;;;12.07;;
3791;SDS011;1911;53.768;11.474;2023-06-19T08:23:02;13.50;;;12.07;;
3791;SDS011;1911;53.768;11.474;2023-06-19T08:25:27;13.80;;;12.40;;
3791;SDS011;1911;53.768;11.474;2023-06-19T08:27:53;14.57;;;13.03;;
3791;SDS011;1911;53.768;11.474;2023-06-19T08:30:18;14.20;;;12.20;;
3791;SDS011;1911;53.768;11.474;2023-06-19T08:32:45;12.67;;;11.33;;
3791;SDS011;1911;53.768;11.474;2023-06-19T08:35:13;12.57;;;10.57;;
3791;SDS011;1911;53.768;11.474;2023-06-19T08:37:40;12.73;;;11.00;;
3791;SDS011;1911;53.768;11.474;2023-06-19T08:40:05;12.47;;;10.40;;
3791;SDS011;1911;53.768;11.474;2023-06-19T08:42:34;14.03;;;10.53;;
3791;SDS011;1911;53.768;11.474;2023-06-19T08:45:00;13.30;;;10.70;;
3791;SDS011;1911;53.768;11.474;2023-06-19T08:47:32;12.30;;;11.20;;
3791;SDS011;1911;53.768;11.474;2023-06-19T08:49:59;10.70;;;9.70;;
3791;SDS011;1911;53.768;11.474;2023-06-19T08:52:24;12.07;;;10.87;;
3791;SDS011;1911;53.768;11.474;2023-06-19T08:54:50;11.23;;;10.13;;
3791;SDS011;1911;53.768;11.474;2023-06-19T08:57:16;14.40;;;11.87;;
3791;SDS011;1911;53.768;11.474;2023-06-19T08:59:48;13.10;;;10.60;;
3791;SDS011;1911;53.768;11.474;2023-06-19T09:02:15;12.10;;;10.63;;
3791;SDS011;1911;53.768;11.474;2023-06-19T09:04:41;14.37;;;10.10;;
3791;SDS011;1911;53.768;11.474;2023-06-19T09:07:07;11.40;;;9.37;;
3791;SDS011;1911;53.768;11.474;2023-06-19T09:09:33;12.53;;;11.07;;
3791;SDS011;1911;53.768;11.474;2023-06-19T09:12:03;11.87;;;10.70;;
3791;SDS011;1911;53.768;11.474;2023-06-19T09:14:37;12.23;;;9.90;;
3791;SDS011;1911;53.768;11.474;2023-06-19T09:17:09;13.00;;;10.40;;
3791;SDS011;1911;53.768;11.474;2023-06-19T09:19:37;11.47;;;10.27;;
3791;SDS011;1911;53.768;11.474;2023-06-19T09:22:11;12.50;;;11.20;;
3791;SDS011;1911;53.768;11.474;2023-06-19T09:24:40;13.10;;;10.83;;
3791;SDS011;1911;53.768;11.474;2023-06-19T09:27:16;12.90;;;11.53;;
3791;SDS011;1911;53.768;11.474;2023-06-19T09:29:46;10.50;;;9.50;;
3791;SDS011;1911;53.768;11.474;2023-06-19T09:32:19;11.53;;;10.43;;
3791;SDS011;1911;53.768;11.474;2023-06-19T09:34:45;12.40;;;10.47;;
3791;SDS011;1911;53.768;11.474;2023-06-19T09:37:12;11.07;;;9.83;;
3791;SDS011;1911;53.768;11.474;2023-06-19T09:39:38;12.37;;;10.63;;
3791;SDS011;1911;53.768;11.474;2023-06-19T09:42:05;10.73;;;9.73;;
3791;SDS011;1911;53.768;11.474;2023-06-19T09:44:41;12.03;;;10.73;;
3791;SDS011;1911;53.768;11.474;2023-06-19T09:47:14;12.23;;;11.03;;
3791;SDS011;1911;53.768;11.474;2023-06-19T09:49:49;11.53;;;10.43;;
3791;SDS011;1911;53.768;11.474;2023-06-19T09:52:19;12.00;;;10.60;;
3791;SDS011;1911;53.768;11.474;2023-06-19T09:54:47;10.30;;;9.40;;
3791;SDS011;1911;53.768;11.474;2023-06-19T09:57:16;11.30;;;10.13;;
3791;SDS011;1911;53.768;11.474;2023-06-19T09:59:43;11.03;;;9.90;;
3791;SDS011;1911;53.768;11.474;2023-06-19T10:02:12;14.17;;;10.67;;
3791;SDS011;1911;53.768;11.474;2023-06-19T10:04:43;11.70;;;10.10;;
3791;SDS011;1911;53.768;11.474;2023-06-19T10:09:58;12.43;;;10.13;;
3791;SDS011;1911;53.768;11.474;2023-06-19T10:12:40;10.57;;;9.57;;
3791;SDS011;1911;53.768;11.474;2023-06-19T10:17:51;11.20;;;10.13;;
3791;SDS011;1911;53.768;11.474;2023-06-19T10:23:04;10.87;;;8.60;;
3791;SDS011;1911;53.768;11.474;2023-06-19T10:25:37;11.03;;;9.97;;
3791;SDS011;1911;53.768;11.474;2023-06-19T10:28:04;10.37;;;9.37;;
3791;SDS011;1911;53.768;11.474;2023-06-19T10:30:40;11.20;;;9.87;;
3791;SDS011;1911;53.768;11.474;2023-06-19T10:33:06;10.50;;;9.37;;
3791;SDS011;1911;53.768;11.474;2023-06-19T10:35:38;10.67;;;9.67;;
3791;SDS011;1911;53.768;11.474;2023-06-19T10:38:05;10.53;;;9.43;;
3791;SDS011;1911;53.768;11.474;2023-06-19T10:40:31;10.20;;;9.20;;
3791;SDS011;1911;53.768;11.474;2023-06-19T10:42:56;10.53;;;8.93;;
3791;SDS011;1911;53.768;11.474;2023-06-19T10:45:22;8.83;;;8.00;;
3791;SDS011;1911;53.768;11.474;2023-06-19T10:47:53;9.70;;;8.80;;
3791;SDS011;1911;53.768;11.474;2023-06-19T10:50:20;9.33;;;8.53;;
3791;SDS011;1911;53.768;11.474;2023-06-19T10:52:46;9.30;;;8.37;;
3791;SDS011;1911;53.768;11.474;2023-06-19T10:55:13;8.90;;;7.73;;
3791;SDS011;1911;53.768;11.474;2023-06-19T10:57:40;9.73;;;8.83;;
3791;SDS011;1911;53.768;11.474;2023-06-19T11:00:09;9.60;;;8.80;;
3791;SDS011;1911;53.768;11.474;2023-06-19T11:02:38;8.17;;;7.37;;
3791;SDS011;1911;53.768;11.474;2023-06-19T11:05:06;8.43;;;7.73;;
3791;SDS011;1911;53.768;11.474;2023-06-19T11:07:31;10.30;;;8.37;;
3791;SDS011;1911;53.768;11.474;2023-06-19T11:09:57;8.20;;;7.40;;
3791;SDS011;1911;53.768;11.474;2023-06-19T11:12:23;11.20;;;7.63;;
3791;SDS011;1911;53.768;11.474;2023-06-19T11:14:49;7.50;;;6.67;;
3791;SDS011;1911;53.768;11.474;2023-06-19T11:17:15;12.40;;;7.90;;
3791;SDS011;1911;53.768;11.474;2023-06-19T11:19:43;9.80;;;7.93;;
3791;SDS011;1911;53.768;11.474;2023-06-19T11:22:09;8.40;;;7.60;;
3791;SDS011;1911;53.768;11.474;2023-06-19T11:24:36;10.10;;;9.10;;
3791;SDS011;1911;53.768;11.474;2023-06-19T11:27:02;7.47;;;6.67;;
3791;SDS011;1911;53.768;11.474;2023-06-19T11:29:31;8.70;;;7.80;;
3791;SDS011;1911;53.768;11.474;2023-06-19T11:35:03;9.43;;;8.00;;
3791;SDS011;1911;53.768;11.474;2023-06-19T11:37:32;8.10;;;7.00;;
3791;SDS011;1911;53.768;11.474;2023-06-19T11:39:58;6.80;;;6.13;;
3791;SDS011;1911;53.768;11.474;2023-06-19T11:42:24;8.30;;;7.60;;
3791;SDS011;1911;53.768;11.474;2023-06-19T11:47:20;12.13;;;6.43;;
3791;SDS011;1911;53.768;11.474;2023-06-19T11:49:49;7.33;;;6.63;;
3791;SDS011;1911;53.768;11.474;2023-06-19T11:52:16;8.00;;;7.30;;
3791;SDS011;1911;53.768;11.474;2023-06-19T11:54:42;7.90;;;7.20;;
3791;SDS011;1911;53.768;11.474;2023-06-19T11:57:09;8.13;;;7.13;;
3791;SDS011;1911;53.768;11.474;2023-06-19T11:59:40;7.70;;;7.00;;
3791;SDS011;1911;53.768;11.474;2023-06-19T12:02:07;8.10;;;6.70;;
3791;SDS011;1911;53.768;11.474;2023-06-19T12:04:33;8.37;;;7.60;;
3791;SDS011;1911;53.768;11.474;2023-06-19T12:06:58;7.43;;;6.73;;
3791;SDS011;1911;53.768;11.474;2023-06-19T12:09:24;8.07;;;7.33;;
3791;SDS011;1911;53.768;11.474;2023-06-19T12:11:50;8.00;;;7.17;;
3791;SDS011;1911;53.768;11.474;2023-06-19T12:14:16;7.77;;;7.17;;
3791;SDS011;1911;53.768;11.474;2023-06-19T12:16:43;9.03;;;7.43;;
3791;SDS011;1911;53.768;11.474;2023-06-19T12:19:10;7.73;;;7.03;;
3791;SDS011;1911;53.768;11.474;2023-06-19T12:21:35;8.47;;;7.67;;
3791;SDS011;1911;53.768;11.474;2023-06-19T12:24:01;7.67;;;6.97;;
3791;SDS011;1911;53.768;11.474;2023-06-19T12:26:27;7.90;;;7.20;;
3791;SDS011;1911;53.768;11.474;2023-06-19T12:28:53;9.37;;;8.47;;
3791;SDS011;1911;53.768;11.474;2023-06-19T12:31:18;9.03;;;7.20;;
3791;SDS011;1911;53.768;11.474;2023-06-19T12:33:44;8.67;;;7.77;;
3791;SDS011;1911;53.768;11.474;2023-06-19T12:36:13;8.77;;;7.90;;
3791;SDS011;1911;53.768;11.474;2023-06-19T12:38:42;8.43;;;7.57;;
3791;SDS011;1911;53.768;11.474;2023-06-19T12:41:07;8.03;;;7.17;;
3791;SDS011;1911;53.768;11.474;2023-06-19T12:43:33;8.77;;;7.97;;
3791;SDS011;1911;53.768;11.474;2023-06-19T12:45:59;9.30;;;8.03;;
3791;SDS011;1911;53.768;11.474;2023-06-19T12:48:26;8.60;;;7.70;;
3791;SDS011;1911;53.768;11.474;2023-06-19T12:50:52;9.03;;;8.07;;
3791;SDS011;1911;53.768;11.474;2023-06-19T12:53:17;23.60;;;8.97;;
3791;SDS011;1911;53.768;11.474;2023-06-19T12:55:44;8.40;;;7.60;;
3791;SDS011;1911;53.768;11.474;2023-06-19T12:58:10;8.23;;;7.40;;
3791;SDS011;1911;53.768;11.474;2023-06-19T13:00:36;9.07;;;8.17;;
3791;SDS011;1911;53.768;11.474;2023-06-19T13:03:02;9.13;;;8.33;;
3791;SDS011;1911;53.768;11.474;2023-06-19T13:05:28;9.77;;;8.57;;
3791;SDS011;1911;53.768;11.474;2023-06-19T13:07:54;8.43;;;7.60;;
3791;SDS011;1911;53.768;11.474;2023-06-19T13:10:19;8.83;;;7.93;;
3791;SDS011;1911;53.768;11.474;2023-06-19T13:12:45;7.83;;;7.13;;
3791;SDS011;1911;53.768;11.474;2023-06-19T13:15:11;9.43;;;8.63;;
3791;SDS011;1911;53.768;11.474;2023-06-19T13:17:36;9.10;;;8.00;;
3791;SDS011;1911;53.768;11.474;2023-06-19T13:20:02;9.40;;;7.97;;
3791;SDS011;1911;53.768;11.474;2023-06-19T13:22:29;10.53;;;9.30;;
3791;SDS011;1911;53.768;11.474;2023-06-19T13:24:56;11.80;;;9.07;;
3791;SDS011;1911;53.768;11.474;2023-06-19T13:27:21;9.50;;;8.30;;
3791;SDS011;1911;53.768;11.474;2023-06-19T13:29:47;10.40;;;9.40;;
3791;SDS011;1911;53.768;11.474;2023-06-19T13:32:13;9.60;;;8.73;;
3791;SDS011;1911;53.768;11.474;2023-06-19T13:34:38;9.17;;;8.10;;
3791;SDS011;1911;53.768;11.474;2023-06-19T13:37:04;8.77;;;7.90;;
3791;SDS011;1911;53.768;11.474;2023-06-19T13:39:29;9.13;;;8.13;;
3791;SDS011;1911;53.768;11.474;2023-06-19T13:41:55;8.53;;;7.73;;
3791;SDS011;1911;53.768;11.474;2023-06-19T13:44:21;8.93;;;8.17;;
3791;SDS011;1911;53.768;11.474;2023-06-19T13:46:46;9.57;;;8.67;;
3791;SDS011;1911;53.768;11.474;2023-06-19T13:49:12;10.03;;;9.07;;
3791;SDS011;1911;53.768;11.474;2023-06-19T13:51:38;9.00;;;8.20;;
3791;SDS011;1911;53.768;11.474;2023-06-19T13:54:04;9.73;;;8.73;;
3791;SDS011;1911;53.768;11.474;2023-06-19T13:56:30;9.73;;;8.73;;
3791;SDS011;1911;53.768;11.474;2023-06-19T13:58:57;9.00;;;8.10;;
3791;SDS011;1911;53.768;11.474;2023-06-19T14:01:23;9.97;;;8.73;;
3791;SDS011;1911;53.768;11.474;2023-06-19T14:03:50;9.73;;;8.83;;
3791;SDS011;1911;53.768;11.474;2023-06-19T14:06:16;9.60;;;8.67;;
3791;SDS011;1911;53.768;11.474;2023-06-19T14:08:42;10.10;;;9.20;;
3791;SDS011;1911;53.768;11.474;2023-06-19T14:11:07;9.50;;;8.60;;
3791;SDS011;1911;53.768;11.474;2023-06-19T14:13:33;9.73;;;8.83;;
3791;SDS011;1911;53.768;11.474;2023-06-19T14:15:59;10.07;;;9.17;;
3791;SDS011;1911;53.768;11.474;2023-06-19T14:18:24;12.13;;;10.20;;
3791;SDS011;1911;53.768;11.474;2023-06-19T14:20:50;10.83;;;9.73;;
3791;SDS011;1911;53.768;11.474;2023-06-19T14:23:15;11.30;;;10.30;;
3791;SDS011;1911;53.768;11.474;2023-06-19T14:25:41;11.90;;;10.70;;
3791;SDS011;1911;53.768;11.474;2023-06-19T14:28:06;10.97;;;9.97;;
3791;SDS011;1911;53.768;11.474;2023-06-19T14:30:32;10.43;;;9.53;;
3791;SDS011;1911;53.768;11.474;2023-06-19T14:32:57;12.87;;;11.57;;
3791;SDS011;1911;53.768;11.474;2023-06-19T14:35:23;13.03;;;11.73;;
3791;SDS011;1911;53.768;11.474;2023-06-19T14:37:49;14.07;;;10.50;;
3791;SDS011;1911;53.768;11.474;2023-06-19T14:40:14;12.20;;;11.00;;
3791;SDS011;1911;53.768;11.474;2023-06-19T14:42:40;11.73;;;10.53;;
3791;SDS011;1911;53.768;11.474;2023-06-19T14:45:06;12.20;;;11.10;;
3791;SDS011;1911;53.768;11.474;2023-06-19T14:47:32;12.80;;;11.70;;
3791;SDS011;1911;53.768;11.474;2023-06-19T14:49:58;13.37;;;11.97;;
3791;SDS011;1911;53.768;11.474;2023-06-19T14:52:24;12.07;;;10.97;;
3791;SDS011;1911;53.768;11.474;2023-06-19T14:54:49;13.03;;;11.63;;
3791;SDS011;1911;53.768;11.474;2023-06-19T14:57:15;12.00;;;10.90;;
3791;SDS011;1911;53.768;11.474;2023-06-19T14:59:40;11.50;;;10.40;;
3791;SDS011;1911;53.768;11.474;2023-06-19T15:02:06;12.70;;;11.43;;